Coleman, MI (48618)

2:16 PM EDT on August 17, 2017 (GMT -0400)
Warren Twp | | Change Station

Elev 725 ft 43.76 °N, 84.52 °W | Updated 9 seconds ago

Overcast
Overcast
73.9 °F
Feels Like 71 °F
N
0.0
Wind Variable Wind from WNW
Gusts 0.0 mph

Today
High -- | Low -- °F
--% Chance of Precip.
Yesterday
High -- | Low -- °F
Precip. -- in
Pressure 29.73 in
Visibility 7.0 miles
Clouds Scattered Clouds 800 ft
Scattered Clouds 1700 ft
Mostly Cloudy 2200 ft
Heat Index 71 °F
Dew Point 73 °F
Humidity 96%
Rainfall 0.37 in
Snow Depth Not available.
6:45 AM 8:38 PM
Waning Crescent, 21% visible
METAR KMOP 171754Z AUTO 15008KT 7SM SCT008 SCT017 BKN022 25/23 A2973 RMK AO2 60001 T02470225 10250 20200
Pressure 29.73 in
Visibility 7.0 miles
Clouds Scattered Clouds 800 ft
Scattered Clouds 1700 ft
Mostly Cloudy 2200 ft
Heat Index 71 °F
Dew Point 73 °F
Humidity 96%
Rainfall 0.37 in
Snow Depth Not available.
6:45 AM 8:38 PM
Waning Crescent, 21% visible
METAR KMOP 171754Z AUTO 15008KT 7SM SCT008 SCT017 BKN022 25/23 A2973 RMK AO2 60001 T02470225 10250 20200

Get Severe Weather Alerts

Thanks for signing up!

Be on the lookout for a verification email in your inbox.

You'll start receiving the daily forecast at 6 AM.

×

10-Day Weather Forecast

Almanac

Astronomy

Aug. 17, 2017 Rise Set
Actual Time
Civil Twilight
Nautical Twilight
Astronomical Twilight
Moon
Length of Visible Light
Length of Day
Tomorrow will be .
, % of the Moon is Illuminated

Today's Extremes

State Highs State Lows

Community

WunderPhotos

Category 6

Welcome to Category 6. This is the collective home for Weather Underground's featured writeups by Dr. Jeff Masters (right), Bob Henson (left), Chris Burt, and other regular contributors.

Nearby

Air Quality

  Air Quality AQ Index Pollutant
Not available.

Snow Depth

Station Depth Elevation

Earthquake Activity

City Distance Mag. Time & Date
Minimum magnitude displayed is 2.5.

Coastal Water Temperatures

Place Temperature

Stations

Nearby Weather Stations

Station Location Temp. Windchill Dew Point Humidity Wind Precip. Elev Updated Type
                   

Watches & Warnings

There are currently no watches in effect.